sensor_id;sensor_type;location;lat;lon;timestamp;P1;durP1;ratioP1;P2;durP2;ratioP2
31920;SDS011;66485;52.128;4.436;2023-04-08T00:01:53;2.20;;;1.13;;
31920;SDS011;66485;52.128;4.436;2023-04-08T00:04:18;3.30;;;1.15;;
31920;SDS011;66485;52.128;4.436;2023-04-08T00:06:44;1.83;;;1.13;;
31920;SDS011;66485;52.128;4.436;2023-04-08T00:09:09;1.92;;;1.10;;
31920;SDS011;66485;52.128;4.436;2023-04-08T00:11:35;2.63;;;1.23;;
31920;SDS011;66485;52.128;4.436;2023-04-08T00:14:02;1.88;;;1.00;;
31920;SDS011;66485;52.128;4.436;2023-04-08T00:16:28;3.70;;;1.45;;
31920;SDS011;66485;52.128;4.436;2023-04-08T00:18:53;2.20;;;1.10;;
31920;SDS011;66485;52.128;4.436;2023-04-08T00:21:19;2.88;;;1.30;;
31920;SDS011;66485;52.128;4.436;2023-04-08T00:23:45;2.30;;;1.10;;
31920;SDS011;66485;52.128;4.436;2023-04-08T00:26:11;2.00;;;1.00;;
31920;SDS011;66485;52.128;4.436;2023-04-08T00:28:36;2.47;;;1.40;;
31920;SDS011;66485;52.128;4.436;2023-04-08T00:31:02;2.90;;;1.20;;
31920;SDS011;66485;52.128;4.436;2023-04-08T00:33:27;1.75;;;1.15;;
31920;SDS011;66485;52.128;4.436;2023-04-08T00:35:52;1.83;;;1.02;;
31920;SDS011;66485;52.128;4.436;2023-04-08T00:38:18;4.18;;;1.50;;
31920;SDS011;66485;52.128;4.436;2023-04-08T00:40:43;1.95;;;1.00;;
31920;SDS011;66485;52.128;4.436;2023-04-08T00:43:08;2.58;;;1.10;;
31920;SDS011;66485;52.128;4.436;2023-04-08T00:45:34;1.92;;;0.93;;
31920;SDS011;66485;52.128;4.436;2023-04-08T00:48:00;3.50;;;1.27;;
31920;SDS011;66485;52.128;4.436;2023-04-08T00:50:27;2.20;;;1.10;;
31920;SDS011;66485;52.128;4.436;2023-04-08T00:52:52;2.13;;;1.23;;
31920;SDS011;66485;52.128;4.436;2023-04-08T00:55:18;2.25;;;1.05;;
31920;SDS011;66485;52.128;4.436;2023-04-08T00:57:43;3.00;;;1.30;;
31920;SDS011;66485;52.128;4.436;2023-04-08T01:00:09;2.75;;;1.30;;
31920;SDS011;66485;52.128;4.436;2023-04-08T01:02:43;3.20;;;1.13;;
31920;SDS011;66485;52.128;4.436;2023-04-08T01:05:13;2.30;;;1.27;;
31920;SDS011;66485;52.128;4.436;2023-04-08T01:07:48;2.30;;;1.27;;
31920;SDS011;66485;52.128;4.436;2023-04-08T01:10:16;2.95;;;1.00;;
31920;SDS011;66485;52.128;4.436;2023-04-08T01:12:50;3.40;;;1.30;;
31920;SDS011;66485;52.128;4.436;2023-04-08T01:15:19;1.80;;;1.10;;
31920;SDS011;66485;52.128;4.436;2023-04-08T01:17:45;2.00;;;1.23;;
31920;SDS011;66485;52.128;4.436;2023-04-08T01:20:13;2.38;;;1.35;;
31920;SDS011;66485;52.128;4.436;2023-04-08T01:22:53;2.45;;;1.10;;
31920;SDS011;66485;52.128;4.436;2023-04-08T01:25:26;2.88;;;1.17;;
31920;SDS011;66485;52.128;4.436;2023-04-08T01:27:56;2.00;;;1.30;;
31920;SDS011;66485;52.128;4.436;2023-04-08T01:30:23;2.25;;;1.20;;
31920;SDS011;66485;52.128;4.436;2023-04-08T01:32:50;2.65;;;1.48;;
31920;SDS011;66485;52.128;4.436;2023-04-08T01:35:18;2.88;;;1.20;;
31920;SDS011;66485;52.128;4.436;2023-04-08T01:37:43;2.30;;;1.40;;
31920;SDS011;66485;52.128;4.436;2023-04-08T01:40:11;2.17;;;1.20;;
31920;SDS011;66485;52.128;4.436;2023-04-08T01:42:36;1.90;;;1.15;;
31920;SDS011;66485;52.128;4.436;2023-04-08T01:45:03;2.47;;;1.30;;
31920;SDS011;66485;52.128;4.436;2023-04-08T01:47:31;2.25;;;1.30;;
31920;SDS011;66485;52.128;4.436;2023-04-08T01:49:58;2.25;;;1.23;;
31920;SDS011;66485;52.128;4.436;2023-04-08T01:52:24;2.67;;;1.42;;
31920;SDS011;66485;52.128;4.436;2023-04-08T01:54:52;2.45;;;1.45;;
31920;SDS011;66485;52.128;4.436;2023-04-08T01:57:22;3.22;;;1.60;;
31920;SDS011;66485;52.128;4.436;2023-04-08T01:59:49;2.03;;;1.20;;
31920;SDS011;66485;52.128;4.436;2023-04-08T02:02:16;2.05;;;1.25;;
31920;SDS011;66485;52.128;4.436;2023-04-08T02:04:45;2.20;;;1.30;;
31920;SDS011;66485;52.128;4.436;2023-04-08T02:07:11;2.70;;;1.38;;
31920;SDS011;66485;52.128;4.436;2023-04-08T02:09:36;2.33;;;1.20;;
31920;SDS011;66485;52.128;4.436;2023-04-08T02:12:01;2.55;;;1.20;;
31920;SDS011;66485;52.128;4.436;2023-04-08T02:14:27;2.55;;;1.20;;
31920;SDS011;66485;52.128;4.436;2023-04-08T02:16:55;2.28;;;1.30;;
31920;SDS011;66485;52.128;4.436;2023-04-08T02:19:30;2.28;;;1.17;;
31920;SDS011;66485;52.128;4.436;2023-04-08T02:22:04;4.25;;;1.45;;
31920;SDS011;66485;52.128;4.436;2023-04-08T02:24:33;2.88;;;1.30;;
31920;SDS011;66485;52.128;4.436;2023-04-08T02:27:00;2.67;;;1.38;;
31920;SDS011;66485;52.128;4.436;2023-04-08T02:29:28;3.20;;;1.58;;
31920;SDS011;66485;52.128;4.436;2023-04-08T02:31:55;2.45;;;1.50;;
31920;SDS011;66485;52.128;4.436;2023-04-08T02:34:21;2.70;;;1.15;;
31920;SDS011;66485;52.128;4.436;2023-04-08T02:36:48;2.95;;;1.40;;
31920;SDS011;66485;52.128;4.436;2023-04-08T02:39:15;2.33;;;1.30;;
31920;SDS011;66485;52.128;4.436;2023-04-08T02:41:40;2.10;;;1.20;;
31920;SDS011;66485;52.128;4.436;2023-04-08T02:44:06;2.75;;;1.52;;
31920;SDS011;66485;52.128;4.436;2023-04-08T02:46:31;2.17;;;1.40;;
31920;SDS011;66485;52.128;4.436;2023-04-08T02:48:57;1.73;;;1.20;;
31920;SDS011;66485;52.128;4.436;2023-04-08T02:51:22;2.35;;;1.30;;
31920;SDS011;66485;52.128;4.436;2023-04-08T02:53:48;2.63;;;1.45;;
31920;SDS011;66485;52.128;4.436;2023-04-08T02:56:13;2.67;;;1.52;;
31920;SDS011;66485;52.128;4.436;2023-04-08T02:58:38;2.92;;;1.45;;
31920;SDS011;66485;52.128;4.436;2023-04-08T03:01:12;2.00;;;1.27;;
31920;SDS011;66485;52.128;4.436;2023-04-08T03:03:37;2.20;;;1.20;;
31920;SDS011;66485;52.128;4.436;2023-04-08T03:06:02;2.80;;;1.48;;
31920;SDS011;66485;52.128;4.436;2023-04-08T03:08:28;3.03;;;1.48;;
31920;SDS011;66485;52.128;4.436;2023-04-08T03:10:53;2.72;;;1.30;;
31920;SDS011;66485;52.128;4.436;2023-04-08T03:13:18;3.13;;;1.40;;
31920;SDS011;66485;52.128;4.436;2023-04-08T03:15:43;2.72;;;1.50;;
31920;SDS011;66485;52.128;4.436;2023-04-08T03:18:09;2.38;;;1.30;;
31920;SDS011;66485;52.128;4.436;2023-04-08T03:20:34;2.33;;;1.38;;
31920;SDS011;66485;52.128;4.436;2023-04-08T03:23:00;2.92;;;1.50;;
31920;SDS011;66485;52.128;4.436;2023-04-08T03:25:25;2.85;;;1.50;;
31920;SDS011;66485;52.128;4.436;2023-04-08T03:27:53;3.13;;;1.42;;
31920;SDS011;66485;52.128;4.436;2023-04-08T03:30:18;2.30;;;1.38;;
31920;SDS011;66485;52.128;4.436;2023-04-08T03:32:44;3.25;;;1.55;;
31920;SDS011;66485;52.128;4.436;2023-04-08T03:35:10;2.08;;;1.20;;
31920;SDS011;66485;52.128;4.436;2023-04-08T03:37:35;2.33;;;1.33;;
31920;SDS011;66485;52.128;4.436;2023-04-08T03:40:00;2.45;;;1.58;;
31920;SDS011;66485;52.128;4.436;2023-04-08T03:42:26;3.28;;;1.65;;
31920;SDS011;66485;52.128;4.436;2023-04-08T03:44:51;2.75;;;1.42;;
31920;SDS011;66485;52.128;4.436;2023-04-08T03:47:16;2.53;;;1.48;;
31920;SDS011;66485;52.128;4.436;2023-04-08T03:49:42;2.58;;;1.50;;
31920;SDS011;66485;52.128;4.436;2023-04-08T03:52:07;2.83;;;1.50;;
31920;SDS011;66485;52.128;4.436;2023-04-08T03:54:32;2.50;;;1.40;;
31920;SDS011;66485;52.128;4.436;2023-04-08T03:56:57;2.95;;;1.40;;
31920;SDS011;66485;52.128;4.436;2023-04-08T03:59:23;3.05;;;1.63;;
31920;SDS011;66485;52.128;4.436;2023-04-08T04:01:49;2.92;;;1.50;;
31920;SDS011;66485;52.128;4.436;2023-04-08T04:04:16;3.35;;;1.65;;
31920;SDS011;66485;52.128;4.436;2023-04-08T04:06:41;2.90;;;1.50;;
31920;SDS011;66485;52.128;4.436;2023-04-08T04:09:07;3.45;;;2.10;;
31920;SDS011;66485;52.128;4.436;2023-04-08T04:11:35;2.53;;;1.38;;
31920;SDS011;66485;52.128;4.436;2023-04-08T04:14:01;2.65;;;1.60;;
31920;SDS011;66485;52.128;4.436;2023-04-08T04:16:26;3.03;;;1.50;;
31920;SDS011;66485;52.128;4.436;2023-04-08T04:18:52;2.75;;;1.50;;
31920;SDS011;66485;52.128;4.436;2023-04-08T04:21:17;3.30;;;1.55;;
31920;SDS011;66485;52.128;4.436;2023-04-08T04:23:43;2.47;;;1.48;;
31920;SDS011;66485;52.128;4.436;2023-04-08T04:26:08;2.55;;;1.33;;
31920;SDS011;66485;52.128;4.436;2023-04-08T04:28:34;2.47;;;1.45;;
31920;SDS011;66485;52.128;4.436;2023-04-08T04:31:00;3.17;;;1.75;;
31920;SDS011;66485;52.128;4.436;2023-04-08T04:33:25;2.90;;;1.60;;
31920;SDS011;66485;52.128;4.436;2023-04-08T04:35:51;2.85;;;1.50;;
31920;SDS011;66485;52.128;4.436;2023-04-08T04:38:16;3.00;;;1.58;;
31920;SDS011;66485;52.128;4.436;2023-04-08T04:40:41;2.33;;;1.50;;
31920;SDS011;66485;52.128;4.436;2023-04-08T04:43:08;2.90;;;1.33;;
31920;SDS011;66485;52.128;4.436;2023-04-08T04:45:33;2.03;;;1.33;;
31920;SDS011;66485;52.128;4.436;2023-04-08T04:47:59;2.45;;;1.48;;
31920;SDS011;66485;52.128;4.436;2023-04-08T04:50:24;2.85;;;1.60;;
31920;SDS011;66485;52.128;4.436;2023-04-08T04:52:50;3.05;;;1.77;;
31920;SDS011;66485;52.128;4.436;2023-04-08T04:55:15;2.15;;;1.38;;
31920;SDS011;66485;52.128;4.436;2023-04-08T04:57:40;3.22;;;1.60;;
31920;SDS011;66485;52.128;4.436;2023-04-08T05:00:06;2.15;;;1.48;;
31920;SDS011;66485;52.128;4.436;2023-04-08T05:02:32;2.97;;;1.63;;
31920;SDS011;66485;52.128;4.436;2023-04-08T05:04:58;3.33;;;1.60;;
31920;SDS011;66485;52.128;4.436;2023-04-08T05:07:24;2.60;;;1.33;;
31920;SDS011;66485;52.128;4.436;2023-04-08T05:09:49;2.85;;;1.40;;
31920;SDS011;66485;52.128;4.436;2023-04-08T05:12:14;2.33;;;1.50;;
31920;SDS011;66485;52.128;4.436;2023-04-08T05:14:40;2.75;;;1.52;;
31920;SDS011;66485;52.128;4.436;2023-04-08T05:17:06;2.58;;;1.33;;
31920;SDS011;66485;52.128;4.436;2023-04-08T05:19:31;2.67;;;1.48;;
31920;SDS011;66485;52.128;4.436;2023-04-08T05:21:57;2.85;;;1.63;;
31920;SDS011;66485;52.128;4.436;2023-04-08T05:24:22;2.30;;;1.42;;
31920;SDS011;66485;52.128;4.436;2023-04-08T05:26:47;2.58;;;1.67;;
31920;SDS011;66485;52.128;4.436;2023-04-08T05:29:16;2.50;;;1.45;;
31920;SDS011;66485;52.128;4.436;2023-04-08T05:31:42;2.55;;;1.60;;
31920;SDS011;66485;52.128;4.436;2023-04-08T05:34:08;2.70;;;1.58;;
31920;SDS011;66485;52.128;4.436;2023-04-08T05:36:34;2.85;;;1.55;;
31920;SDS011;66485;52.128;4.436;2023-04-08T05:38:59;3.40;;;1.65;;
31920;SDS011;66485;52.128;4.436;2023-04-08T05:41:24;2.92;;;1.67;;
31920;SDS011;66485;52.128;4.436;2023-04-08T05:43:50;2.97;;;1.75;;
31920;SDS011;66485;52.128;4.436;2023-04-08T05:46:15;2.95;;;1.73;;
31920;SDS011;66485;52.128;4.436;2023-04-08T05:48:41;3.28;;;1.50;;
31920;SDS011;66485;52.128;4.436;2023-04-08T05:51:11;2.60;;;1.48;;
31920;SDS011;66485;52.128;4.436;2023-04-08T05:53:37;2.55;;;1.50;;
31920;SDS011;66485;52.128;4.436;2023-04-08T05:56:02;2.27;;;1.37;;
31920;SDS011;66485;52.128;4.436;2023-04-08T05:58:28;2.95;;;1.67;;
31920;SDS011;66485;52.128;4.436;2023-04-08T06:00:53;3.33;;;1.50;;
31920;SDS011;66485;52.128;4.436;2023-04-08T06:03:19;3.47;;;1.83;;
31920;SDS011;66485;52.128;4.436;2023-04-08T06:05:45;3.50;;;1.90;;
31920;SDS011;66485;52.128;4.436;2023-04-08T06:08:10;3.17;;;1.88;;
31920;SDS011;66485;52.128;4.436;2023-04-08T06:10:35;3.30;;;1.70;;
31920;SDS011;66485;52.128;4.436;2023-04-08T06:13:00;3.20;;;1.67;;
31920;SDS011;66485;52.128;4.436;2023-04-08T06:15:26;2.30;;;1.60;;
31920;SDS011;66485;52.128;4.436;2023-04-08T06:17:52;2.00;;;1.48;;
31920;SDS011;66485;52.128;4.436;2023-04-08T06:20:17;3.15;;;2.00;;
31920;SDS011;66485;52.128;4.436;2023-04-08T06:22:42;3.50;;;1.85;;
31920;SDS011;66485;52.128;4.436;2023-04-08T06:25:07;4.30;;;2.20;;
31920;SDS011;66485;52.128;4.436;2023-04-08T06:27:33;3.40;;;1.90;;
31920;SDS011;66485;52.128;4.436;2023-04-08T06:29:58;3.28;;;1.75;;
31920;SDS011;66485;52.128;4.436;2023-04-08T06:32:23;3.33;;;1.70;;
31920;SDS011;66485;52.128;4.436;2023-04-08T06:34:49;2.90;;;1.98;;
31920;SDS011;66485;52.128;4.436;2023-04-08T06:37:14;2.70;;;1.80;;
31920;SDS011;66485;52.128;4.436;2023-04-08T06:39:40;3.30;;;1.80;;
31920;SDS011;66485;52.128;4.436;2023-04-08T06:42:05;2.92;;;1.60;;
31920;SDS011;66485;52.128;4.436;2023-04-08T06:44:31;3.03;;;1.85;;
31920;SDS011;66485;52.128;4.436;2023-04-08T06:46:56;3.33;;;1.98;;
31920;SDS011;66485;52.128;4.436;2023-04-08T06:49:21;3.30;;;1.88;;
31920;SDS011;66485;52.128;4.436;2023-04-08T06:51:47;3.83;;;1.65;;
31920;SDS011;66485;52.128;4.436;2023-04-08T06:54:12;3.65;;;2.33;;
31920;SDS011;66485;52.128;4.436;2023-04-08T06:56:38;3.53;;;1.75;;
31920;SDS011;66485;52.128;4.436;2023-04-08T06:59:03;3.10;;;1.80;;
31920;SDS011;66485;52.128;4.436;2023-04-08T07:01:28;3.42;;;1.90;;
31920;SDS011;66485;52.128;4.436;2023-04-08T07:03:54;3.50;;;2.10;;
31920;SDS011;66485;52.128;4.436;2023-04-08T07:06:20;3.78;;;1.77;;
31920;SDS011;66485;52.128;4.436;2023-04-08T07:08:46;3.00;;;1.85;;
31920;SDS011;66485;52.128;4.436;2023-04-08T07:11:11;3.40;;;1.98;;
31920;SDS011;66485;52.128;4.436;2023-04-08T07:13:36;4.40;;;1.73;;
31920;SDS011;66485;52.128;4.436;2023-04-08T07:16:02;3.72;;;2.13;;
31920;SDS011;66485;52.128;4.436;2023-04-08T07:18:27;3.45;;;1.60;;
31920;SDS011;66485;52.128;4.436;2023-04-08T07:20:53;3.53;;;1.98;;
31920;SDS011;66485;52.128;4.436;2023-04-08T07:23:18;3.47;;;1.90;;
31920;SDS011;66485;52.128;4.436;2023-04-08T07:25:44;3.05;;;1.70;;
31920;SDS011;66485;52.128;4.436;2023-04-08T07:28:10;4.07;;;2.20;;
31920;SDS011;66485;52.128;4.436;2023-04-08T07:30:36;3.33;;;1.77;;
31920;SDS011;66485;52.128;4.436;2023-04-08T07:33:01;3.17;;;1.83;;
31920;SDS011;66485;52.128;4.436;2023-04-08T07:35:26;3.92;;;1.90;;
31920;SDS011;66485;52.128;4.436;2023-04-08T07:37:52;3.58;;;2.30;;
31920;SDS011;66485;52.128;4.436;2023-04-08T07:40:19;3.20;;;1.90;;
31920;SDS011;66485;52.128;4.436;2023-04-08T07:42:44;3.10;;;1.95;;
31920;SDS011;66485;52.128;4.436;2023-04-08T07:45:10;3.97;;;2.00;;
31920;SDS011;66485;52.128;4.436;2023-04-08T07:47:35;2.58;;;1.88;;
31920;SDS011;66485;52.128;4.436;2023-04-08T07:50:01;3.10;;;1.75;;
31920;SDS011;66485;52.128;4.436;2023-04-08T07:52:28;2.90;;;1.90;;
31920;SDS011;66485;52.128;4.436;2023-04-08T07:54:54;2.95;;;1.73;;
31920;SDS011;66485;52.128;4.436;2023-04-08T07:57:20;2.63;;;1.60;;
31920;SDS011;66485;52.128;4.436;2023-04-08T07:59:45;3.42;;;2.03;;
31920;SDS011;66485;52.128;4.436;2023-04-08T08:02:11;3.33;;;1.90;;
31920;SDS011;66485;52.128;4.436;2023-04-08T08:04:36;3.53;;;2.10;;
31920;SDS011;66485;52.128;4.436;2023-04-08T08:07:01;3.33;;;1.83;;
31920;SDS011;66485;52.128;4.436;2023-04-08T08:09:26;3.13;;;1.70;;
31920;SDS011;66485;52.128;4.436;2023-04-08T08:11:52;3.20;;;1.80;;
31920;SDS011;66485;52.128;4.436;2023-04-08T08:14:17;3.97;;;2.20;;
31920;SDS011;66485;52.128;4.436;2023-04-08T08:16:42;3.05;;;2.13;;
31920;SDS011;66485;52.128;4.436;2023-04-08T08:19:08;3.30;;;1.85;;
31920;SDS011;66485;52.128;4.436;2023-04-08T08:21:37;3.38;;;2.00;;
31920;SDS011;66485;52.128;4.436;2023-04-08T08:24:03;2.55;;;1.73;;
31920;SDS011;66485;52.128;4.436;2023-04-08T08:26:29;4.70;;;2.13;;
31920;SDS011;66485;52.128;4.436;2023-04-08T08:28:54;2.97;;;1.73;;
31920;SDS011;66485;52.128;4.436;2023-04-08T08:31:19;3.67;;;1.95;;
31920;SDS011;66485;52.128;4.436;2023-04-08T08:33:45;3.15;;;1.90;;
31920;SDS011;66485;52.128;4.436;2023-04-08T08:36:11;2.88;;;1.90;;
31920;SDS011;66485;52.128;4.436;2023-04-08T08:38:37;3.58;;;1.95;;
31920;SDS011;66485;52.128;4.436;2023-04-08T08:41:02;3.30;;;1.92;;
31920;SDS011;66485;52.128;4.436;2023-04-08T08:43:28;3.45;;;1.88;;
31920;SDS011;66485;52.128;4.436;2023-04-08T08:45:57;2.50;;;1.67;;
31920;SDS011;66485;52.128;4.436;2023-04-08T08:48:23;3.15;;;2.00;;
31920;SDS011;66485;52.128;4.436;2023-04-08T08:50:48;3.20;;;1.92;;
31920;SDS011;66485;52.128;4.436;2023-04-08T08:53:14;3.00;;;1.80;;
31920;SDS011;66485;52.128;4.436;2023-04-08T08:55:39;3.40;;;1.90;;
31920;SDS011;66485;52.128;4.436;2023-04-08T08:58:05;3.67;;;2.08;;
31920;SDS011;66485;52.128;4.436;2023-04-08T09:00:38;3.75;;;2.22;;
31920;SDS011;66485;52.128;4.436;2023-04-08T09:05:59;3.10;;;2.00;;
31920;SDS011;66485;52.128;4.436;2023-04-08T09:10:56;3.67;;;1.95;;
31920;SDS011;66485;52.128;4.436;2023-04-08T09:13:36;3.10;;;1.83;;
31920;SDS011;66485;52.128;4.436;2023-04-08T09:18:29;3.15;;;1.90;;
31920;SDS011;66485;52.128;4.436;2023-04-08T09:20:55;3.58;;;2.22;;
31920;SDS011;66485;52.128;4.436;2023-04-08T09:23:20;3.78;;;1.80;;
31920;SDS011;66485;52.128;4.436;2023-04-08T09:25:45;2.97;;;1.98;;
31920;SDS011;66485;52.128;4.436;2023-04-08T09:28:20;3.13;;;2.10;;
31920;SDS011;66485;52.128;4.436;2023-04-08T09:30:45;3.95;;;1.98;;
31920;SDS011;66485;52.128;4.436;2023-04-08T09:33:12;3.83;;;2.13;;
31920;SDS011;66485;52.128;4.436;2023-04-08T09:35:37;3.47;;;2.08;;
31920;SDS011;66485;52.128;4.436;2023-04-08T09:38:03;4.32;;;2.60;;
31920;SDS011;66485;52.128;4.436;2023-04-08T09:40:28;4.15;;;2.25;;
31920;SDS011;66485;52.128;4.436;2023-04-08T09:42:58;3.33;;;2.10;;
31920;SDS011;66485;52.128;4.436;2023-04-08T09:45:26;4.53;;;2.42;;
31920;SDS011;66485;52.128;4.436;2023-04-08T09:50:31;3.00;;;1.92;;
31920;SDS011;66485;52.128;4.436;2023-04-08T09:53:01;3.85;;;2.00;;
31920;SDS011;66485;52.128;4.436;2023-04-08T09:55:34;3.22;;;1.70;;
31920;SDS011;66485;52.128;4.436;2023-04-08T09:58:02;3.38;;;2.03;;
31920;SDS011;66485;52.128;4.436;2023-04-08T10:00:33;3.08;;;1.90;;
31920;SDS011;66485;52.128;4.436;2023-04-08T10:05:30;3.47;;;1.88;;
31920;SDS011;66485;52.128;4.436;2023-04-08T10:07:55;3.17;;;2.05;;
31920;SDS011;66485;52.128;4.436;2023-04-08T10:10:21;3.33;;;2.22;;
31920;SDS011;66485;52.128;4.436;2023-04-08T10:12:48;3.15;;;1.95;;
31920;SDS011;66485;52.128;4.436;2023-04-08T10:17:50;3.28;;;1.98;;
31920;SDS011;66485;52.128;4.436;2023-04-08T10:20:39;3.42;;;1.95;;
31920;SDS011;66485;52.128;4.436;2023-04-08T10:23:13;3.33;;;2.00;;
31920;SDS011;66485;52.128;4.436;2023-04-08T10:25:40;2.95;;;1.90;;
31920;SDS011;66485;52.128;4.436;2023-04-08T10:28:26;3.70;;;2.20;;
31920;SDS011;66485;52.128;4.436;2023-04-08T10:30:52;3.38;;;2.00;;
31920;SDS011;66485;52.128;4.436;2023-04-08T10:33:33;3.72;;;2.30;;
31920;SDS011;66485;52.128;4.436;2023-04-08T10:38:39;2.97;;;1.80;;
31920;SDS011;66485;52.128;4.436;2023-04-08T10:41:06;4.78;;;2.80;;
31920;SDS011;66485;52.128;4.436;2023-04-08T10:43:32;4.50;;;2.40;;
31920;SDS011;66485;52.128;4.436;2023-04-08T10:45:58;4.32;;;2.50;;
31920;SDS011;66485;52.128;4.436;2023-04-08T10:48:24;3.80;;;2.20;;
31920;SDS011;66485;52.128;4.436;2023-04-08T10:55:52;3.88;;;2.30;;
31920;SDS011;66485;52.128;4.436;2023-04-08T10:58:17;4.30;;;2.33;;
31920;SDS011;66485;52.128;4.436;2023-04-08T11:00:43;4.40;;;2.40;;
31920;SDS011;66485;52.128;4.436;2023-04-08T11:03:09;3.92;;;2.30;;
31920;SDS011;66485;52.128;4.436;2023-04-08T11:05:35;3.70;;;2.20;;
31920;SDS011;66485;52.128;4.436;2023-04-08T11:08:02;3.88;;;2.40;;
31920;SDS011;66485;52.128;4.436;2023-04-08T11:10:28;4.53;;;2.65;;
31920;SDS011;66485;52.128;4.436;2023-04-08T11:12:54;4.13;;;2.50;;
31920;SDS011;66485;52.128;4.436;2023-04-08T11:15:20;4.20;;;2.05;;
31920;SDS011;66485;52.128;4.436;2023-04-08T11:17:46;4.57;;;2.70;;
31920;SDS011;66485;52.128;4.436;2023-04-08T11:20:12;3.58;;;2.33;;
31920;SDS011;66485;52.128;4.436;2023-04-08T11:22:38;3.85;;;2.42;;
31920;SDS011;66485;52.128;4.436;2023-04-08T11:25:04;4.32;;;2.20;;
31920;SDS011;66485;52.128;4.436;2023-04-08T11:27:32;3.88;;;2.20;;
31920;SDS011;66485;52.128;4.436;2023-04-08T11:29:59;3.15;;;2.03;;
31920;SDS011;66485;52.128;4.436;2023-04-08T11:32:25;4.03;;;2.28;;
31920;SDS011;66485;52.128;4.436;2023-04-08T11:34:53;5.07;;;2.70;;
31920;SDS011;66485;52.128;4.436;2023-04-08T11:37:18;4.40;;;2.35;;
31920;SDS011;66485;52.128;4.436;2023-04-08T11:39:44;4.70;;;2.60;;
31920;SDS011;66485;52.128;4.436;2023-04-08T11:42:29;3.92;;;2.45;;
31920;SDS011;66485;52.128;4.436;2023-04-08T11:44:56;4.45;;;2.58;;
31920;SDS011;66485;52.128;4.436;2023-04-08T11:47:29;4.65;;;2.63;;
31920;SDS011;66485;52.128;4.436;2023-04-08T11:49:55;3.92;;;2.33;;
31920;SDS011;66485;52.128;4.436;2023-04-08T11:52:21;3.45;;;2.20;;
31920;SDS011;66485;52.128;4.436;2023-04-08T11:54:46;5.72;;;2.60;;
31920;SDS011;66485;52.128;4.436;2023-04-08T11:57:12;3.85;;;2.33;;
31920;SDS011;66485;52.128;4.436;2023-04-08T11:59:39;4.13;;;2.70;;
31920;SDS011;66485;52.128;4.436;2023-04-08T12:02:05;4.15;;;2.65;;
31920;SDS011;66485;52.128;4.436;2023-04-08T12:04:30;3.75;;;2.20;;
31920;SDS011;66485;52.128;4.436;2023-04-08T12:06:56;4.10;;;2.50;;
31920;SDS011;66485;52.128;4.436;2023-04-08T12:09:21;3.75;;;2.38;;
31920;SDS011;66485;52.128;4.436;2023-04-08T12:11:46;7.23;;;2.80;;
31920;SDS011;66485;52.128;4.436;2023-04-08T12:14:12;4.85;;;2.55;;
31920;SDS011;66485;52.128;4.436;2023-04-08T12:16:38;4.03;;;2.38;;
31920;SDS011;66485;52.128;4.436;2023-04-08T12:19:03;4.07;;;2.50;;
31920;SDS011;66485;52.128;4.436;2023-04-08T12:21:29;4.03;;;2.70;;
31920;SDS011;66485;52.128;4.436;2023-04-08T12:23:56;3.45;;;2.38;;
31920;SDS011;66485;52.128;4.436;2023-04-08T12:26:21;4.55;;;2.70;;
31920;SDS011;66485;52.128;4.436;2023-04-08T12:28:46;4.77;;;2.83;;
31920;SDS011;66485;52.128;4.436;2023-04-08T12:31:12;4.97;;;2.70;;
31920;SDS011;66485;52.128;4.436;2023-04-08T12:33:37;4.30;;;2.50;;
31920;SDS011;66485;52.128;4.436;2023-04-08T12:36:02;3.30;;;2.13;;
31920;SDS011;66485;52.128;4.436;2023-04-08T12:38:28;3.45;;;2.33;;
31920;SDS011;66485;52.128;4.436;2023-04-08T12:40:53;4.75;;;2.90;;
31920;SDS011;66485;52.128;4.436;2023-04-08T12:43:20;3.90;;;2.65;;
31920;SDS011;66485;52.128;4.436;2023-04-08T12:45:45;4.50;;;2.50;;
31920;SDS011;66485;52.128;4.436;2023-04-08T12:48:12;4.50;;;2.47;;
31920;SDS011;66485;52.128;4.436;2023-04-08T12:50:37;4.00;;;2.40;;
31920;SDS011;66485;52.128;4.436;2023-04-08T12:53:02;3.95;;;2.42;;
31920;SDS011;66485;52.128;4.436;2023-04-08T12:55:28;4.00;;;2.40;;
31920;SDS011;66485;52.128;4.436;2023-04-08T12:57:53;3.67;;;2.38;;
31920;SDS011;66485;52.128;4.436;2023-04-08T13:00:18;3.50;;;2.40;;
31920;SDS011;66485;52.128;4.436;2023-04-08T13:02:44;4.55;;;2.45;;
31920;SDS011;66485;52.128;4.436;2023-04-08T13:05:10;3.67;;;2.30;;
31920;SDS011;66485;52.128;4.436;2023-04-08T13:07:35;4.25;;;2.38;;
31920;SDS011;66485;52.128;4.436;2023-04-08T13:10:01;3.97;;;2.30;;
31920;SDS011;66485;52.128;4.436;2023-04-08T13:12:27;4.45;;;2.63;;
31920;SDS011;66485;52.128;4.436;2023-04-08T13:14:53;4.50;;;2.80;;
31920;SDS011;66485;52.128;4.436;2023-04-08T13:17:19;5.00;;;2.25;;
31920;SDS011;66485;52.128;4.436;2023-04-08T13:19:44;4.55;;;2.47;;
31920;SDS011;66485;52.128;4.436;2023-04-08T13:22:09;4.95;;;2.78;;
31920;SDS011;66485;52.128;4.436;2023-04-08T13:24:35;4.10;;;2.83;;
31920;SDS011;66485;52.128;4.436;2023-04-08T13:27:01;4.15;;;2.50;;
31920;SDS011;66485;52.128;4.436;2023-04-08T13:29:27;3.53;;;2.40;;
31920;SDS011;66485;52.128;4.436;2023-04-08T13:31:52;4.10;;;2.50;;
31920;SDS011;66485;52.128;4.436;2023-04-08T13:34:17;3.33;;;2.40;;
31920;SDS011;66485;52.128;4.436;2023-04-08T13:36:43;4.70;;;2.20;;
31920;SDS011;66485;52.128;4.436;2023-04-08T13:39:08;3.30;;;2.33;;
31920;SDS011;66485;52.128;4.436;2023-04-08T13:41:34;3.28;;;2.30;;
31920;SDS011;66485;52.128;4.436;2023-04-08T13:43:59;3.80;;;2.20;;
31920;SDS011;66485;52.128;4.436;2023-04-08T13:46:25;3.97;;;2.53;;
31920;SDS011;66485;52.128;4.436;2023-04-08T13:48:50;3.30;;;2.10;;
31920;SDS011;66485;52.128;4.436;2023-04-08T13:51:15;3.85;;;2.20;;
31920;SDS011;66485;52.128;4.436;2023-04-08T13:53:41;4.35;;;2.33;;
31920;SDS011;66485;52.128;4.436;2023-04-08T13:56:06;3.38;;;2.33;;
31920;SDS011;66485;52.128;4.436;2023-04-08T13:58:32;3.70;;;2.50;;
31920;SDS011;66485;52.128;4.436;2023-04-08T14:00:57;3.78;;;2.50;;
31920;SDS011;66485;52.128;4.436;2023-04-08T14:03:22;3.42;;;2.20;;
31920;SDS011;66485;52.128;4.436;2023-04-08T14:05:48;3.90;;;2.38;;
31920;SDS011;66485;52.128;4.436;2023-04-08T14:08:14;3.40;;;2.13;;
31920;SDS011;66485;52.128;4.436;2023-04-08T14:10:40;3.92;;;2.45;;
31920;SDS011;66485;52.128;4.436;2023-04-08T14:13:05;3.58;;;2.17;;
31920;SDS011;66485;52.128;4.436;2023-04-08T14:15:31;3.90;;;2.60;;
31920;SDS011;66485;52.128;4.436;2023-04-08T14:17:56;4.55;;;2.40;;
31920;SDS011;66485;52.128;4.436;2023-04-08T14:20:22;3.38;;;2.00;;
31920;SDS011;66485;52.128;4.436;2023-04-08T14:22:47;3.30;;;2.38;;
31920;SDS011;66485;52.128;4.436;2023-04-08T14:25:12;3.33;;;2.20;;
31920;SDS011;66485;52.128;4.436;2023-04-08T14:27:38;3.33;;;2.30;;
31920;SDS011;66485;52.128;4.436;2023-04-08T14:30:03;3.90;;;1.98;;
31920;SDS011;66485;52.128;4.436;2023-04-08T14:32:29;3.75;;;2.30;;
31920;SDS011;66485;52.128;4.436;2023-04-08T14:34:56;3.65;;;2.33;;
31920;SDS011;66485;52.128;4.436;2023-04-08T14:37:21;3.10;;;1.95;;
31920;SDS011;66485;52.128;4.436;2023-04-08T14:39:46;4.20;;;1.92;;
31920;SDS011;66485;52.128;4.436;2023-04-08T14:42:12;4.07;;;2.30;;
31920;SDS011;66485;52.128;4.436;2023-04-08T14:44:39;3.30;;;2.25;;
31920;SDS011;66485;52.128;4.436;2023-04-08T14:47:05;3.50;;;1.90;;
31920;SDS011;66485;52.128;4.436;2023-04-08T14:49:30;3.30;;;2.20;;
31920;SDS011;66485;52.128;4.436;2023-04-08T14:51:56;4.18;;;2.70;;
31920;SDS011;66485;52.128;4.436;2023-04-08T14:54:21;3.53;;;2.25;;
31920;SDS011;66485;52.128;4.436;2023-04-08T14:56:46;3.65;;;2.20;;
31920;SDS011;66485;52.128;4.436;2023-04-08T14:59:11;3.33;;;2.33;;
31920;SDS011;66485;52.128;4.436;2023-04-08T15:01:37;3.97;;;2.60;;
31920;SDS011;66485;52.128;4.436;2023-04-08T15:04:02;3.37;;;2.00;;
31920;SDS011;66485;52.128;4.436;2023-04-08T15:06:27;4.68;;;2.42;;